createdAt,value
2023-03-05T00:01:30.253Z,80.33
2023-03-05T00:03:57.015Z,80.14
2023-03-05T00:06:25.764Z,80.26
2023-03-05T00:08:53.304Z,80.29
2023-03-05T00:11:20.632Z,80.85
2023-03-05T00:13:47.128Z,80.13
2023-03-05T00:16:15.547Z,80.54
2023-03-05T00:18:43.394Z,80.30
2023-03-05T00:21:24.862Z,80.11
2023-03-05T00:23:53.010Z,79.49
2023-03-05T00:26:21.682Z,80.41
2023-03-05T00:28:50.002Z,79.71
2023-03-05T00:31:21.513Z,79.65
2023-03-05T00:33:56.233Z,80.12
2023-03-05T00:36:24.410Z,80.26
2023-03-05T00:38:50.974Z,79.91
2023-03-05T00:41:17.430Z,79.93
2023-03-05T00:43:45.156Z,80.48
2023-03-05T00:46:11.562Z,80.25
2023-03-05T00:48:37.927Z,79.83
2023-03-05T00:51:04.762Z,79.72
2023-03-05T00:53:31.384Z,79.86
2023-03-05T00:55:58.746Z,80.01
2023-03-05T00:58:25.106Z,80.03
2023-03-05T01:00:51.480Z,80.46
2023-03-05T01:03:18.912Z,79.90
2023-03-05T01:05:45.456Z,80.10
2023-03-05T01:08:11.838Z,80.35
2023-03-05T01:10:38.316Z,80.30
2023-03-05T01:13:04.640Z,80.27
2023-03-05T01:15:31.020Z,80.17
2023-03-05T01:17:57.343Z,80.54
2023-03-05T01:20:23.714Z,80.20
2023-03-05T01:22:50.301Z,80.50
2023-03-05T01:25:17.735Z,80.61
2023-03-05T01:27:44.253Z,80.75
2023-03-05T01:30:12.172Z,80.71
2023-03-05T01:32:38.634Z,80.74
2023-03-05T01:35:06.300Z,80.33
2023-03-05T01:37:32.715Z,81.04
2023-03-05T01:39:59.040Z,81.04
2023-03-05T01:42:25.474Z,80.77
2023-03-05T01:45:10.121Z,80.64
2023-03-05T01:47:37.440Z,80.73
2023-03-05T01:50:07.199Z,79.55
2023-03-05T01:52:36.957Z,80.70
2023-03-05T01:55:11.693Z,81.01
2023-03-05T01:57:42.139Z,79.43
2023-03-05T02:00:11.284Z,79.60
2023-03-05T02:02:37.988Z,80.60
2023-03-05T02:05:09.787Z,80.32
2023-03-05T02:07:37.892Z,80.64
2023-03-05T02:10:16.748Z,79.61
2023-03-05T02:12:43.368Z,79.28
2023-03-05T02:15:10.408Z,80.12
2023-03-05T02:17:36.758Z,80.56
2023-03-05T02:20:27.321Z,79.98
2023-03-05T02:22:53.664Z,80.12
2023-03-05T02:25:24.182Z,80.80
2023-03-05T02:27:59.679Z,79.66
2023-03-05T02:30:26.068Z,79.50
2023-03-05T02:32:52.488Z,78.54
2023-03-05T02:35:19.281Z,78.55
2023-03-05T02:37:45.817Z,78.93
2023-03-05T02:40:13.211Z,79.17
2023-03-05T02:42:40.237Z,79.60
2023-03-05T02:45:07.193Z,79.76
2023-03-05T02:47:33.693Z,79.12
2023-03-05T02:50:00.044Z,77.24
2023-03-05T02:52:27.502Z,77.20
2023-03-05T02:54:54.135Z,77.08
2023-03-05T02:57:20.593Z,77.77
2023-03-05T02:59:47.415Z,78.52
2023-03-05T03:02:14.000Z,79.37
2023-03-05T03:04:40.444Z,79.69
2023-03-05T03:07:06.800Z,79.59
2023-03-05T03:09:35.498Z,79.26
2023-03-05T03:12:03.090Z,79.69
2023-03-05T03:14:39.180Z,79.11
2023-03-05T03:17:07.446Z,79.50
2023-03-05T03:19:33.978Z,80.40
2023-03-05T03:22:00.358Z,80.22
2023-03-05T03:24:27.237Z,80.34
2023-03-05T03:26:53.552Z,80.48
2023-03-05T03:29:19.956Z,79.94
2023-03-05T03:31:46.479Z,80.04
2023-03-05T03:34:14.993Z,80.40
2023-03-05T03:36:45.820Z,80.92
2023-03-05T03:39:14.042Z,81.08
2023-03-05T03:41:52.672Z,81.15
2023-03-05T03:44:20.793Z,81.33
2023-03-05T03:46:48.775Z,80.89
2023-03-05T03:49:23.568Z,81.22
2023-03-05T03:51:51.432Z,81.63
2023-03-05T03:54:18.672Z,81.63
2023-03-05T03:56:45.603Z,81.57
2023-03-05T03:59:12.838Z,81.12
2023-03-05T04:01:39.882Z,81.27
2023-03-05T04:04:07.182Z,81.75
2023-03-05T04:06:34.122Z,82.08
2023-03-05T04:09:00.411Z,82.12
2023-03-05T04:11:26.722Z,82.20
2023-03-05T04:13:53.007Z,82.02
2023-03-05T04:16:19.477Z,80.98
2023-03-05T04:18:48.030Z,81.15
2023-03-05T04:21:14.335Z,81.07
2023-03-05T04:23:40.952Z,81.38
2023-03-05T04:26:07.280Z,81.32
2023-03-05T04:28:33.660Z,81.27
2023-03-05T04:31:00.168Z,80.47
2023-03-05T04:33:26.710Z,80.03
2023-03-05T04:35:53.077Z,79.72
2023-03-05T04:38:19.410Z,78.85
2023-03-05T04:40:46.523Z,79.06
2023-03-05T04:43:12.952Z,78.46
2023-03-05T04:45:41.226Z,77.53
2023-03-05T04:48:07.848Z,77.46
2023-03-05T04:50:34.308Z,78.13
2023-03-05T04:53:00.812Z,76.64
2023-03-05T04:55:27.593Z,77.36
2023-03-05T04:57:54.005Z,77.43
2023-03-05T05:00:20.505Z,77.55
2023-03-05T05:02:49.613Z,76.82
2023-03-05T05:05:18.938Z,76.25
2023-03-05T05:07:45.430Z,75.02
2023-03-05T05:10:12.748Z,74.27
2023-03-05T05:12:39.302Z,74.16
2023-03-05T05:15:07.251Z,73.70
2023-03-05T05:17:34.357Z,73.60
2023-03-05T05:20:01.665Z,74.98
2023-03-05T05:22:29.115Z,75.29
2023-03-05T05:24:56.217Z,76.29
2023-03-05T05:27:22.785Z,76.79
2023-03-05T05:29:52.840Z,77.00
2023-03-05T05:32:20.831Z,77.58
2023-03-05T05:34:53.099Z,77.50
2023-03-05T05:37:19.385Z,77.46
2023-03-05T05:39:49.987Z,76.37
2023-03-05T05:42:17.822Z,76.54
2023-03-05T05:44:44.256Z,76.60
2023-03-05T05:47:11.220Z,76.75
2023-03-05T05:49:37.748Z,77.21
2023-03-05T05:52:04.472Z,76.92
2023-03-05T05:54:30.826Z,77.41
2023-03-05T05:56:57.117Z,77.53
2023-03-05T05:59:23.387Z,78.15
2023-03-05T06:01:49.855Z,78.46
2023-03-05T06:04:16.320Z,78.32
2023-03-05T06:06:42.633Z,78.42
2023-03-05T06:09:11.088Z,78.52
2023-03-05T06:11:38.349Z,79.13
2023-03-05T06:14:04.728Z,79.28
2023-03-05T06:16:31.121Z,79.72
2023-03-05T06:18:57.480Z,80.13
2023-03-05T06:21:23.809Z,80.65
2023-03-05T06:23:50.803Z,80.99
2023-03-05T06:26:20.032Z,81.28
2023-03-05T06:28:46.363Z,81.61
2023-03-05T06:31:18.608Z,81.60
2023-03-05T06:33:45.310Z,81.81
2023-03-05T06:36:14.604Z,82.41
2023-03-05T06:38:41.786Z,82.56
2023-03-05T06:41:11.651Z,82.69
2023-03-05T06:43:40.713Z,82.02
2023-03-05T06:46:15.950Z,82.22
2023-03-05T06:48:43.239Z,82.28
2023-03-05T06:51:21.288Z,82.64
2023-03-05T06:53:49.466Z,82.69
2023-03-05T06:56:17.243Z,82.81
2023-03-05T06:58:46.156Z,83.11
2023-03-05T07:01:16.196Z,82.83
2023-03-05T07:03:43.024Z,83.20
2023-03-05T07:06:13.121Z,83.33
2023-03-05T07:08:39.893Z,83.21
2023-03-05T07:11:11.017Z,83.10
2023-03-05T07:13:37.446Z,82.40
2023-03-05T07:16:14.064Z,81.08
2023-03-05T07:18:40.551Z,81.25
2023-03-05T07:21:08.934Z,81.40
2023-03-05T07:23:35.964Z,81.08
2023-03-05T07:26:03.764Z,79.46
2023-03-05T07:28:30.117Z,78.77
2023-03-05T07:31:08.582Z,78.67
2023-03-05T07:33:37.042Z,79.09
2023-03-05T07:36:04.750Z,79.12
2023-03-05T07:38:32.174Z,76.65
2023-03-05T07:41:03.569Z,76.06
2023-03-05T07:43:29.942Z,75.97
2023-03-05T07:45:56.246Z,75.89
2023-03-05T07:48:22.589Z,75.60
2023-03-05T07:50:49.093Z,75.35
2023-03-05T07:53:15.733Z,75.18
2023-03-05T07:55:46.482Z,75.22
2023-03-05T07:58:14.484Z,74.69
2023-03-05T08:00:41.088Z,74.22
2023-03-05T08:03:07.663Z,73.65
2023-03-05T08:05:34.003Z,72.77
2023-03-05T08:08:00.339Z,72.91
2023-03-05T08:10:26.824Z,72.44
2023-03-05T08:12:53.592Z,72.03
2023-03-05T08:15:19.930Z,73.09
2023-03-05T08:17:46.268Z,71.89
2023-03-05T08:20:13.082Z,72.17
2023-03-05T08:22:39.567Z,71.84
2023-03-05T08:25:07.563Z,72.23
2023-03-05T08:27:34.156Z,71.72
2023-03-05T08:30:02.148Z,70.93
2023-03-05T08:32:28.649Z,70.31
2023-03-05T08:35:02.738Z,70.64
2023-03-05T08:37:29.260Z,70.93
2023-03-05T08:39:56.385Z,70.04
2023-03-05T08:42:23.659Z,69.64
2023-03-05T08:44:49.996Z,70.12
2023-03-05T08:47:18.040Z,69.83
2023-03-05T08:49:44.797Z,70.07
2023-03-05T08:52:11.094Z,69.47
2023-03-05T08:54:38.574Z,69.69
2023-03-05T08:57:08.386Z,68.40
2023-03-05T08:59:34.831Z,67.59
2023-03-05T09:02:02.296Z,68.44
2023-03-05T09:04:31.049Z,68.38
2023-03-05T09:06:57.674Z,67.90
2023-03-05T09:09:24.667Z,67.59
2023-03-05T09:11:52.144Z,68.10
2023-03-05T09:14:18.429Z,68.01
2023-03-05T09:16:44.853Z,68.58
2023-03-05T09:19:12.677Z,69.10
2023-03-05T09:21:39.082Z,69.05
2023-03-05T09:24:05.535Z,69.80
2023-03-05T09:26:31.889Z,70.48
2023-03-05T09:28:58.269Z,70.54
2023-03-05T09:31:24.908Z,70.48
2023-03-05T09:33:51.298Z,72.14
2023-03-05T09:36:26.440Z,72.53
2023-03-05T09:38:53.604Z,72.88
2023-03-05T09:41:33.942Z,70.94
2023-03-05T09:44:15.239Z,69.12
2023-03-05T09:47:14.711Z,68.99
2023-03-05T09:49:44.036Z,68.70
2023-03-05T09:52:20.358Z,68.16
2023-03-05T09:54:53.562Z,65.95
2023-03-05T09:57:25.800Z,65.69
2023-03-05T10:00:01.280Z,65.44
2023-03-05T10:02:35.234Z,65.32
2023-03-05T10:05:18.750Z,64.57
2023-03-05T10:07:54.338Z,65.22
2023-03-05T10:10:47.783Z,65.42
2023-03-05T10:13:22.968Z,64.83
2023-03-05T10:15:51.913Z,65.09
2023-03-05T10:18:30.350Z,65.46
2023-03-05T10:20:59.169Z,65.46
2023-03-05T10:23:34.476Z,65.04
2023-03-05T10:26:13.742Z,65.06
2023-03-05T10:28:46.945Z,65.60
2023-03-05T10:31:21.500Z,65.76
2023-03-05T10:34:16.135Z,65.33
2023-03-05T10:37:10.261Z,66.57
2023-03-05T10:39:45.881Z,66.36
2023-03-05T10:42:36.941Z,65.66
2023-03-05T10:45:15.877Z,66.32
2023-03-05T10:48:03.693Z,66.54
2023-03-05T10:50:40.792Z,66.40
2023-03-05T10:53:10.205Z,66.63
2023-03-05T10:55:36.526Z,66.65
2023-03-05T10:58:12.129Z,67.07
2023-03-05T11:00:38.541Z,66.08
2023-03-05T11:03:08.991Z,65.87
2023-03-05T11:05:38.364Z,64.56
2023-03-05T11:08:24.820Z,63.08
2023-03-05T11:11:16.266Z,63.14
2023-03-05T11:13:58.723Z,64.18
2023-03-05T11:16:30.642Z,63.47
2023-03-05T11:19:20.254Z,63.95
2023-03-05T11:22:07.040Z,63.02
2023-03-05T11:24:33.842Z,62.92
2023-03-05T11:27:00.506Z,63.92
2023-03-05T11:29:30.216Z,61.54
2023-03-05T11:32:15.909Z,61.32
2023-03-05T11:34:42.484Z,60.19
2023-03-05T11:37:22.470Z,58.74
2023-03-05T11:39:50.099Z,57.89
2023-03-05T11:42:25.237Z,57.83
2023-03-05T11:44:53.872Z,57.88
2023-03-05T11:47:30.237Z,57.30
2023-03-05T11:50:20.914Z,54.59
2023-03-05T11:52:54.978Z,52.91
2023-03-05T11:55:28.385Z,54.57
2023-03-05T11:58:09.601Z,54.10
2023-03-05T12:00:37.884Z,52.98
2023-03-05T12:03:12.176Z,54.18
2023-03-05T12:05:43.302Z,53.65
2023-03-05T12:08:15.232Z,53.68
2023-03-05T12:10:41.870Z,54.78
2023-03-05T12:13:28.613Z,54.93
2023-03-05T12:16:26.203Z,54.72
2023-03-05T12:18:58.560Z,54.15
2023-03-05T12:21:33.845Z,54.96
2023-03-05T12:24:28.176Z,55.89
2023-03-05T12:27:03.038Z,57.01
2023-03-05T12:30:03.917Z,58.33
2023-03-05T12:32:33.105Z,59.62
2023-03-05T12:35:22.831Z,60.23
2023-03-05T12:37:49.191Z,60.76
2023-03-05T12:40:15.510Z,60.42
2023-03-05T12:43:00.696Z,59.78
2023-03-05T12:45:29.981Z,60.48
2023-03-05T12:47:56.237Z,59.52
2023-03-05T12:50:28.540Z,59.41
2023-03-05T12:53:09.903Z,60.18
2023-03-05T12:55:48.657Z,60.43
2023-03-05T12:58:17.046Z,60.13
2023-03-05T13:00:49.476Z,59.66
2023-03-05T13:03:20.638Z,59.49
2023-03-05T13:05:56.129Z,59.66
2023-03-05T13:08:31.560Z,59.00
2023-03-05T13:11:18.680Z,58.61
2023-03-05T13:13:47.504Z,58.33
2023-03-05T13:16:38.555Z,57.82
2023-03-05T13:19:16.299Z,57.63
2023-03-05T13:21:42.597Z,56.86
2023-03-05T13:24:18.109Z,54.84
2023-03-05T13:26:44.937Z,54.18
2023-03-05T13:29:18.493Z,53.88
2023-03-05T13:31:57.267Z,53.51
2023-03-05T13:34:46.143Z,54.04
2023-03-05T13:37:17.806Z,54.53
2023-03-05T13:39:58.688Z,54.80
2023-03-05T13:42:34.356Z,55.13
2023-03-05T13:45:05.378Z,54.93
2023-03-05T13:47:36.480Z,56.17
2023-03-05T13:50:09.644Z,56.60
2023-03-05T13:52:38.157Z,56.87
2023-03-05T13:55:13.275Z,57.01
2023-03-05T13:57:42.420Z,57.34
2023-03-05T14:00:29.873Z,57.54
2023-03-05T14:03:01.190Z,57.21
2023-03-05T14:05:30.781Z,57.12
2023-03-05T14:07:57.560Z,57.67
2023-03-05T14:10:34.628Z,57.59
2023-03-05T14:13:04.903Z,57.58
2023-03-05T14:15:34.335Z,57.02
2023-03-05T14:18:12.561Z,57.37
2023-03-05T14:20:40.692Z,57.49
2023-03-05T14:23:35.666Z,57.44
2023-03-05T14:26:28.985Z,56.44
2023-03-05T14:29:00.327Z,56.83
2023-03-05T14:31:29.007Z,55.45
2023-03-05T14:34:02.194Z,55.45
2023-03-05T14:36:30.316Z,55.23
2023-03-05T14:38:57.212Z,56.05
2023-03-05T14:41:35.312Z,56.17
2023-03-05T14:44:01.947Z,56.57
2023-03-05T14:46:28.664Z,57.01
2023-03-05T14:48:55.071Z,57.10
2023-03-05T14:51:21.845Z,57.63
2023-03-05T14:53:50.959Z,57.98
2023-03-05T14:56:23.760Z,58.43
2023-03-05T14:58:50.293Z,58.51
2023-03-05T15:01:17.087Z,58.08
2023-03-05T15:03:43.990Z,58.84
2023-03-05T15:06:24.084Z,58.64
2023-03-05T15:08:52.519Z,58.80
2023-03-05T15:11:18.827Z,59.07
2023-03-05T15:13:45.365Z,59.43
2023-03-05T15:16:15.752Z,59.26
2023-03-05T15:18:42.328Z,59.37
2023-03-05T15:21:08.729Z,60.18
2023-03-05T15:23:38.018Z,60.65
2023-03-05T15:26:07.831Z,60.34
2023-03-05T15:28:38.819Z,60.45
2023-03-05T15:31:06.221Z,60.24
2023-03-05T15:33:33.637Z,60.73
2023-03-05T15:36:00.333Z,60.74
2023-03-05T15:38:29.590Z,61.18
2023-03-05T15:40:55.970Z,61.12
2023-03-05T15:43:22.312Z,60.74
2023-03-05T15:45:48.648Z,61.29
2023-03-05T15:48:16.019Z,61.37
2023-03-05T15:50:43.571Z,62.32
2023-03-05T15:53:15.472Z,61.66
2023-03-05T15:55:46.076Z,62.15
2023-03-05T15:58:16.580Z,63.06
2023-03-05T16:00:44.236Z,63.36
2023-03-05T16:03:11.080Z,62.81
2023-03-05T16:05:40.258Z,62.46
2023-03-05T16:08:07.460Z,62.32
2023-03-05T16:10:35.566Z,63.01
2023-03-05T16:13:06.640Z,62.34
2023-03-05T16:15:33.724Z,62.74
2023-03-05T16:18:04.242Z,63.15
2023-03-05T16:20:30.690Z,63.22
2023-03-05T16:22:57.041Z,63.06
2023-03-05T16:25:23.407Z,62.98
2023-03-05T16:27:49.713Z,63.06
2023-03-05T16:30:16.919Z,63.35
2023-03-05T16:32:43.675Z,63.93
2023-03-05T16:35:12.146Z,64.30
2023-03-05T16:37:40.353Z,64.76
2023-03-05T16:40:08.687Z,64.57
2023-03-05T16:42:35.067Z,64.16
2023-03-05T16:45:01.719Z,65.34
2023-03-05T16:47:28.074Z,65.56
2023-03-05T16:49:54.394Z,65.65
2023-03-05T16:52:21.130Z,66.42
2023-03-05T16:54:48.418Z,66.10
2023-03-05T16:57:14.928Z,65.91
2023-03-05T16:59:41.420Z,65.57
2023-03-05T17:02:07.865Z,65.93
2023-03-05T17:04:34.215Z,66.36
2023-03-05T17:07:00.566Z,67.11
2023-03-05T17:09:26.938Z,67.05
2023-03-05T17:11:53.957Z,67.29
2023-03-05T17:14:20.601Z,67.58
2023-03-05T17:16:47.221Z,67.79
2023-03-05T17:19:13.718Z,67.33
2023-03-05T17:21:42.271Z,67.01
2023-03-05T17:24:09.788Z,67.19
2023-03-05T17:26:36.442Z,67.93
2023-03-05T17:29:04.471Z,67.28
2023-03-05T17:31:30.958Z,67.81
2023-03-05T17:33:57.512Z,67.70
2023-03-05T17:36:24.729Z,67.92
2023-03-05T17:38:52.062Z,68.26
2023-03-05T17:41:19.422Z,68.11
2023-03-05T17:43:46.580Z,68.45
2023-03-05T17:46:13.915Z,68.12
2023-03-05T17:48:41.546Z,68.28
2023-03-05T17:51:11.270Z,68.42
2023-03-05T17:53:39.286Z,68.46
2023-03-05T17:56:09.869Z,68.47
2023-03-05T17:58:36.896Z,68.10
2023-03-05T18:01:04.420Z,66.87
2023-03-05T18:03:30.793Z,67.01
2023-03-05T18:05:57.128Z,67.27
2023-03-05T18:08:23.484Z,67.84
2023-03-05T18:10:50.279Z,68.46
2023-03-05T18:13:16.857Z,68.73
2023-03-05T18:15:47.500Z,68.44
2023-03-05T18:18:17.844Z,68.75
2023-03-05T18:20:44.792Z,68.59
2023-03-05T18:23:11.505Z,68.14
2023-03-05T18:25:37.954Z,67.30
2023-03-05T18:28:07.224Z,67.49
2023-03-05T18:30:33.944Z,67.60
2023-03-05T18:33:00.786Z,67.26
2023-03-05T18:35:29.131Z,67.50
2023-03-05T18:37:56.145Z,67.80
2023-03-05T18:40:24.635Z,68.74
2023-03-05T18:42:51.614Z,69.43
2023-03-05T18:45:19.917Z,69.94
2023-03-05T18:47:46.882Z,69.78
2023-03-05T18:50:16.633Z,70.43
2023-03-05T18:52:43.289Z,70.34
2023-03-05T18:55:18.631Z,70.73
2023-03-05T18:57:45.135Z,71.14
2023-03-05T19:00:16.626Z,71.11
2023-03-05T19:02:42.915Z,70.98
2023-03-05T19:05:10.157Z,71.23
2023-03-05T19:07:37.884Z,71.03
2023-03-05T19:10:09.809Z,71.32
2023-03-05T19:12:45.387Z,71.30
2023-03-05T19:15:13.031Z,71.69
2023-03-05T19:17:39.449Z,71.57
2023-03-05T19:20:07.788Z,71.57
2023-03-05T19:22:34.706Z,71.37
2023-03-05T19:25:01.649Z,71.17
2023-03-05T19:27:28.084Z,71.32
2023-03-05T19:29:54.599Z,71.13
2023-03-05T19:32:24.689Z,71.32
2023-03-05T19:34:55.569Z,71.26
2023-03-05T19:37:22.238Z,71.16
2023-03-05T19:39:48.812Z,71.05
2023-03-05T19:42:15.414Z,71.20
2023-03-05T19:44:42.120Z,71.16
2023-03-05T19:47:08.470Z,70.93
2023-03-05T19:49:35.770Z,71.11
2023-03-05T19:52:02.082Z,71.13
2023-03-05T19:54:28.517Z,71.23
2023-03-05T19:56:55.748Z,72.04
2023-03-05T19:59:22.986Z,72.06
2023-03-05T20:01:49.531Z,71.81
2023-03-05T20:04:19.950Z,72.10
2023-03-05T20:06:46.590Z,72.04
2023-03-05T20:09:14.103Z,72.20
2023-03-05T20:11:40.888Z,72.04
2023-03-05T20:14:07.904Z,71.75
2023-03-05T20:16:37.485Z,71.90
2023-03-05T20:19:06.569Z,71.73
2023-03-05T20:21:36.300Z,71.46
2023-03-05T20:24:06.900Z,71.52
2023-03-05T20:26:36.988Z,71.85
2023-03-05T20:29:04.746Z,71.79
2023-03-05T20:31:33.849Z,72.08
2023-03-05T20:34:00.292Z,72.01
2023-03-05T20:36:26.585Z,72.68
2023-03-05T20:38:52.930Z,71.73
2023-03-05T20:41:23.178Z,71.89
2023-03-05T20:43:51.008Z,71.86
2023-03-05T20:46:32.734Z,71.51
2023-03-05T20:49:01.001Z,71.84
2023-03-05T20:51:36.118Z,72.03
2023-03-05T20:54:05.709Z,72.15
2023-03-05T20:56:33.790Z,72.80
2023-03-05T20:59:03.688Z,72.61
2023-03-05T21:01:32.057Z,73.39
2023-03-05T21:03:58.629Z,73.86
2023-03-05T21:06:27.030Z,74.12
2023-03-05T21:08:53.967Z,74.02
2023-03-05T21:11:20.510Z,73.47
2023-03-05T21:13:47.142Z,73.16
2023-03-05T21:16:17.236Z,72.27
2023-03-05T21:18:43.846Z,71.83
2023-03-05T21:21:10.271Z,72.11
2023-03-05T21:23:36.850Z,71.87
2023-03-05T21:26:04.115Z,71.96
2023-03-05T21:28:31.693Z,72.52
2023-03-05T21:30:58.050Z,73.18
2023-03-05T21:33:28.052Z,72.76
2023-03-05T21:35:56.854Z,73.07
2023-03-05T21:38:24.697Z,73.37
2023-03-05T21:40:53.599Z,73.57
2023-03-05T21:43:22.607Z,73.70
2023-03-05T21:45:50.881Z,72.90
2023-03-05T21:48:17.282Z,73.01
2023-03-05T21:50:45.333Z,72.62
2023-03-05T21:53:12.784Z,72.07
2023-03-05T21:55:54.965Z,71.15
2023-03-05T21:58:21.262Z,70.86
2023-03-05T22:00:50.045Z,70.71
2023-03-05T22:03:16.458Z,70.82
2023-03-05T22:05:43.846Z,71.37
2023-03-05T22:08:10.171Z,71.37
2023-03-05T22:10:36.586Z,71.89
2023-03-05T22:13:09.918Z,71.89
2023-03-05T22:15:50.976Z,71.92
2023-03-05T22:18:19.358Z,72.32
2023-03-05T22:20:46.341Z,71.85
2023-03-05T22:23:13.445Z,72.39
2023-03-05T22:25:40.837Z,72.56
2023-03-05T22:28:09.176Z,71.92
2023-03-05T22:30:35.892Z,72.29
2023-03-05T22:33:02.605Z,72.02
2023-03-05T22:35:29.722Z,71.59
2023-03-05T22:37:56.134Z,72.03
2023-03-05T22:40:22.673Z,71.76
2023-03-05T22:42:49.057Z,72.10
2023-03-05T22:45:17.697Z,72.46
2023-03-05T22:47:47.523Z,72.36
2023-03-05T22:50:14.699Z,72.73
2023-03-05T22:52:41.071Z,72.79
2023-03-05T22:55:07.785Z,72.67
2023-03-05T22:57:34.106Z,72.54
2023-03-05T23:00:00.412Z,71.92
2023-03-05T23:02:26.808Z,70.41
2023-03-05T23:04:54.853Z,70.60
2023-03-05T23:07:26.743Z,71.37
2023-03-05T23:10:21.166Z,71.83
2023-03-05T23:12:50.425Z,71.82
2023-03-05T23:15:19.810Z,71.90
2023-03-05T23:17:46.182Z,71.03
2023-03-05T23:20:16.518Z,71.33
2023-03-05T23:22:44.676Z,71.53
2023-03-05T23:25:12.990Z,72.06
2023-03-05T23:27:39.742Z,72.12
2023-03-05T23:30:19.477Z,72.15
2023-03-05T23:32:52.556Z,72.48
2023-03-05T23:35:23.558Z,72.57
2023-03-05T23:37:50.678Z,72.30
2023-03-05T23:40:25.765Z,71.83
2023-03-05T23:42:52.540Z,71.57
2023-03-05T23:45:20.158Z,71.94
2023-03-05T23:47:48.253Z,72.51
2023-03-05T23:50:20.871Z,73.05
2023-03-05T23:52:48.115Z,73.27
2023-03-05T23:55:21.146Z,73.11
2023-03-05T23:57:47.709Z,73.45
